Time;durP1;ratioP1;P1;durP2;ratioP2;P2;SDS_P1;SDS_P2;PMS_P1;PMS_P2;Temp;Humidity;BMP_temperature;BMP_pressure;BME280_temperature;BME280_humidity;BME280_pressure;Samples;Min_cycle;Max_cycle;Signal;HPM_P1;HPM_P2
2022/12/19 00:00:40;;;;;;;72.75;40.88;;;3.20;99.90;;;;;;4995641;28;20035;-53
2022/12/19 00:03:05;;;;;;;74.25;41.65;;;3.30;99.90;;;;;;4995628;28;20033;-53
2022/12/19 00:05:36;;;;;;;75.80;40.55;;;3.00;99.90;;;;;;4982795;28;20497;-53
2022/12/19 00:08:02;;;;;;;71.90;41.20;;;3.10;99.90;;;;;;5012523;28;20124;-50
2022/12/19 00:10:28;;;;;;;74.38;41.95;;;3.20;99.90;;;;;;5013047;28;20117;-51
2022/12/19 00:12:53;;;;;;;78.47;43.80;;;3.20;99.90;;;;;;5029593;28;20552;-53
2022/12/19 00:15:19;;;;;;;75.43;40.85;;;3.20;99.90;;;;;;5029584;28;20038;-51
2022/12/19 00:17:45;;;;;;;78.82;41.25;;;3.20;99.90;;;;;;5014941;28;20030;-50
2022/12/19 00:20:11;;;;;;;77.72;40.45;;;3.20;99.90;;;;;;5015341;28;20030;-54
2022/12/19 00:22:36;;;;;;;77.47;41.67;;;3.00;99.90;;;;;;5014919;28;20116;-51
2022/12/19 00:25:02;;;;;;;81.95;44.30;;;3.10;99.90;;;;;;5010515;28;20121;-50
2022/12/19 00:27:32;;;;;;;81.15;44.17;;;3.10;99.90;;;;;;5014723;28;20069;-51
2022/12/19 00:29:58;;;;;;;88.85;49.78;;;3.20;99.90;;;;;;5015276;28;20034;-50
2022/12/19 00:32:23;;;;;;;85.55;46.58;;;3.00;99.90;;;;;;5016338;28;20029;-52
2022/12/19 00:34:49;;;;;;;91.07;49.42;;;3.30;99.90;;;;;;5029266;28;20042;-51
2022/12/19 00:37:15;;;;;;;89.40;49.67;;;3.30;99.90;;;;;;5015032;28;20026;-52
2022/12/19 00:39:41;;;;;;;83.00;47.15;;;3.40;99.90;;;;;;5014615;28;20113;-50
2022/12/19 00:42:06;;;;;;;78.88;44.97;;;3.40;99.90;;;;;;5029085;28;20080;-52
2022/12/19 00:44:32;;;;;;;80.13;43.60;;;3.30;99.90;;;;;;5028638;28;20046;-53
2022/12/19 00:46:58;;;;;;;80.88;42.35;;;3.40;99.90;;;;;;5014393;28;20081;-51
2022/12/19 00:49:24;;;;;;;79.32;41.92;;;3.40;99.90;;;;;;5014697;28;20033;-53
2022/12/19 00:51:50;;;;;;;77.18;43.00;;;3.50;99.90;;;;;;5014353;28;20041;-50
2022/12/19 00:54:16;;;;;;;69.55;39.80;;;3.60;99.90;;;;;;5014150;28;20029;-55
2022/12/19 00:56:42;;;;;;;72.07;38.92;;;3.60;99.90;;;;;;5014174;28;20108;-51
2022/12/19 00:59:09;;;;;;;73.53;39.88;;;3.50;99.90;;;;;;5012279;28;20069;-53
2022/12/19 01:01:38;;;;;;;68.78;37.97;;;3.60;99.90;;;;;;5014159;28;20052;-53
2022/12/19 01:04:05;;;;;;;72.55;38.20;;;3.70;99.90;;;;;;5014625;28;20141;-52
2022/12/19 01:06:31;;;;;;;70.35;38.63;;;3.70;99.90;;;;;;5014042;28;20042;-53
2022/12/19 01:08:57;;;;;;;90.75;43.80;;;3.70;99.90;;;;;;5013298;28;20022;-51
2022/12/19 01:12:44;;;;;;;86.65;43.83;;;3.70;99.90;;;;;;5014380;28;20032;-54
2022/12/19 01:14:10;;;;;;;79.18;40.20;;;3.70;99.90;;;;;;5014423;28;20036;-54
2022/12/19 01:16:36;;;;;;;77.47;40.33;;;3.80;99.90;;;;;;5014081;28;20029;-52
2022/12/19 01:19:02;;;;;;;74.43;39.95;;;3.80;99.90;;;;;;5014232;28;20519;-54
2022/12/19 01:21:27;;;;;;;69.45;38.17;;;3.80;99.90;;;;;;5028548;28;20120;-54
2022/12/19 01:23:53;;;;;;;72.03;39.55;;;3.80;99.90;;;;;;5013954;28;20204;-54
2022/12/19 01:26:19;;;;;;;71.43;39.25;;;3.90;99.90;;;;;;5013888;28;20399;-50
2022/12/19 01:28:45;;;;;;;66.28;37.30;;;4.00;99.90;;;;;;5013538;28;20033;-51
2022/12/19 01:31:10;;;;;;;74.93;40.22;;;4.00;99.90;;;;;;5013743;28;20037;-51
2022/12/19 01:33:39;;;;;;;71.13;39.40;;;3.70;99.90;;;;;;5013622;28;20037;-51
2022/12/19 01:36:06;;;;;;;66.60;37.15;;;3.80;99.90;;;;;;5013894;28;20097;-51
2022/12/19 01:38:34;;;;;;;65.68;37.30;;;3.90;99.90;;;;;;5031242;28;20436;-53
2022/12/19 01:40:59;;;;;;;71.65;37.50;;;3.80;99.90;;;;;;5031234;28;20033;-50
2022/12/19 01:43:28;;;;;;;73.32;38.78;;;3.70;99.90;;;;;;4998208;28;20034;-53
2022/12/19 01:46:01;;;;;;;74.97;40.90;;;3.70;99.90;;;;;;5030915;28;20053;-51
2022/12/19 01:48:44;;;;;;;71.07;39.13;;;3.20;99.90;;;;;;5031448;28;20037;-52
2022/12/19 01:51:20;;;;;;;70.85;38.55;;;3.10;99.90;;;;;;5031251;28;20034;-54
2022/12/19 01:53:50;;;;;;;70.60;37.08;;;3.20;99.90;;;;;;5031028;28;20033;-53
2022/12/19 01:56:23;;;;;;;70.18;38.83;;;3.20;99.90;;;;;;5031297;28;20529;-53
2022/12/19 01:58:51;;;;;;;65.55;36.85;;;2.90;99.90;;;;;;5027964;28;20072;-51
2022/12/19 02:01:17;;;;;;;67.82;38.08;;;2.90;99.90;;;;;;5031083;28;20436;-51
2022/12/19 02:03:44;;;;;;;74.00;39.30;;;2.90;99.90;;;;;;5030930;28;20069;-53
2022/12/19 02:06:12;;;;;;;68.47;37.53;;;3.10;99.90;;;;;;5031069;28;20060;-52
2022/12/19 02:08:40;;;;;;;65.68;37.15;;;3.10;99.90;;;;;;5028318;28;20392;-50
2022/12/19 02:11:05;;;;;;;64.75;36.35;;;3.20;99.90;;;;;;5013797;28;20030;-54
2022/12/19 02:13:32;;;;;;;68.60;37.67;;;3.50;99.90;;;;;;5013248;28;20389;-50
2022/12/19 02:16:34;;;;;;;69.70;37.83;;;3.60;99.90;;;;;;5013686;28;20433;-50
2022/12/19 02:19:47;;;;;;;69.20;36.17;;;3.50;99.90;;;;;;5014795;28;20112;-52
2022/12/19 02:22:17;;;;;;;;;;;3.40;99.90;;;;;;4995963;28;20121;-51
2022/12/19 02:25:04;;;;;;;66.45;35.88;;;3.10;99.90;;;;;;4995164;28;19906;-50
2022/12/19 02:27:41;;;;;;;64.38;34.42;;;2.80;99.90;;;;;;4995554;28;20045;-54
2022/12/19 02:30:14;;;;;;;57.58;33.95;;;3.20;99.90;;;;;;4995368;28;20517;-51
2022/12/19 02:32:56;;;;;;;63.25;34.35;;;3.40;99.90;;;;;;4995254;28;20569;-53
2022/12/19 02:35:31;;;;;;;62.03;35.30;;;3.60;99.90;;;;;;4995125;28;20031;-53
2022/12/19 02:38:14;;;;;;;57.70;31.98;;;3.70;99.90;;;;;;4995128;28;20534;-51
2022/12/19 02:40:55;;;;;;;55.75;32.10;;;3.40;99.90;;;;;;4995180;28;20058;-50
2022/12/19 02:43:22;;;;;;;52.13;29.17;;;3.20;99.90;;;;;;4995104;28;20126;-51
2022/12/19 02:45:51;;;;;;;55.03;30.55;;;3.10;99.90;;;;;;4994982;28;20054;-49
2022/12/19 02:48:17;;;;;;;49.15;27.58;;;3.20;99.90;;;;;;4994969;28;20073;-52
2022/12/19 02:50:44;;;;;;;51.22;29.30;;;3.10;99.90;;;;;;4994665;28;20117;-53
2022/12/19 02:53:12;;;;;;;58.13;32.92;;;3.20;99.90;;;;;;4992247;28;20030;-53
2022/12/19 02:56:00;;;;;;;52.72;31.40;;;3.40;99.90;;;;;;5000487;28;20034;-53
2022/12/19 02:58:31;;;;;;;51.50;28.83;;;3.40;99.90;;;;;;5016510;28;20033;-53
2022/12/19 03:01:01;;;;;;;49.75;27.05;;;3.60;99.90;;;;;;5016286;28;20028;-53
2022/12/19 03:03:26;;;;;;;47.22;26.27;;;3.40;99.90;;;;;;5016551;28;20377;-51
2022/12/19 03:06:01;;;;;;;50.15;27.85;;;3.10;99.90;;;;;;5016203;28;20022;-51
2022/12/19 03:08:42;;;;;;;45.42;26.60;;;3.00;99.90;;;;;;5016318;28;20096;-52
2022/12/19 03:11:12;;;;;;;33.60;19.63;;;3.10;99.90;;;;;;5016378;28;20120;-51
2022/12/19 03:13:46;;;;;;;39.78;22.42;;;2.90;99.90;;;;;;5016436;28;20080;-53
2022/12/19 03:16:13;;;;;;;45.25;23.17;;;2.80;99.90;;;;;;5016118;28;20022;-53
2022/12/19 03:18:39;;;;;;;44.60;25.75;;;2.60;99.90;;;;;;5016478;28;20057;-52
2022/12/19 03:21:22;;;;;;;41.55;23.50;;;2.60;99.90;;;;;;5014161;28;20076;-53
2022/12/19 03:23:51;;;;;;;38.45;21.77;;;2.40;99.90;;;;;;5014066;28;20034;-51
2022/12/19 03:26:22;;;;;;;50.80;24.55;;;2.40;99.90;;;;;;5016332;28;20389;-50
2022/12/19 03:29:04;;;;;;;60.70;29.63;;;2.30;99.90;;;;;;5015983;28;20040;-53
2022/12/19 03:31:32;;;;;;;50.92;29.48;;;2.30;99.90;;;;;;5015243;28;20389;-53
2022/12/19 03:34:02;;;;;;;40.33;22.73;;;2.40;99.90;;;;;;5015837;28;20038;-53
2022/12/19 03:36:32;;;;;;;38.90;23.05;;;2.50;99.90;;;;;;4997168;28;20034;-50
2022/12/19 03:39:03;;;;;;;36.63;21.70;;;2.50;99.90;;;;;;5006854;28;20034;-50
2022/12/19 03:44:16;;;;;;;40.58;21.27;;;2.70;99.90;;;;;;4996509;28;20041;-51
2022/12/19 03:46:47;;;;;;;39.08;22.25;;;2.50;99.90;;;;;;4995863;28;20103;-54
2022/12/19 03:49:13;;;;;;;41.35;24.77;;;2.50;99.90;;;;;;4996480;28;20092;-52
2022/12/19 03:52:26;;;;;;;38.42;21.35;;;2.70;99.90;;;;;;4996360;28;20418;-54
2022/12/19 03:55:00;;;;;;;40.28;22.85;;;2.40;99.90;;;;;;4995141;28;20038;-51
2022/12/19 03:58:01;;;;;;;36.72;21.58;;;2.40;99.90;;;;;;4995180;28;20038;-54
2022/12/19 04:00:28;;;;;;;63.75;35.90;;;2.50;99.90;;;;;;4939657;29;20040;-52
2022/12/19 04:02:57;;;;;;;59.03;34.03;;;2.60;99.90;;;;;;4935674;29;20052;-53
2022/12/19 04:05:25;;;;;;;50.80;28.55;;;2.60;99.90;;;;;;4935565;29;20047;-52
2022/12/19 04:07:55;;;;;;;46.92;25.92;;;2.70;99.90;;;;;;4935457;29;20043;-51
2022/12/19 04:10:24;;;;;;;41.78;25.70;;;2.70;99.90;;;;;;4938418;29;20053;-52
2022/12/19 04:12:56;;;;;;;43.10;25.92;;;2.80;99.90;;;;;;4940978;29;20066;-62
2022/12/19 04:15:33;;;;;;;45.70;24.83;;;2.90;99.90;;;;;;4941207;29;20035;-54
2022/12/19 04:18:04;;;;;;;39.13;25.15;;;2.90;99.90;;;;;;4940498;29;20044;-50
2022/12/19 04:20:31;;;;;;;42.38;24.63;;;2.70;99.90;;;;;;4939936;29;20035;-50
2022/12/19 04:23:18;;;;;;;43.40;25.33;;;2.60;99.90;;;;;;4922884;29;20045;-50
2022/12/19 04:25:50;;;;;;;45.63;25.17;;;2.50;99.90;;;;;;4935391;29;20059;-53
2022/12/19 04:28:25;;;;;;;44.92;26.25;;;2.50;99.90;;;;;;4935024;29;20051;-54
2022/12/19 04:30:53;;;;;;;44.90;25.50;;;2.50;99.90;;;;;;4944009;29;20450;-52
2022/12/19 04:33:19;;;;;;;47.80;26.83;;;2.50;99.90;;;;;;4957318;28;20488;-52
2022/12/19 04:35:45;;;;;;;39.50;22.55;;;2.70;99.90;;;;;;5014619;28;20026;-53
2022/12/19 04:38:10;;;;;;;40.38;23.70;;;2.50;99.90;;;;;;5013440;28;20084;-52
2022/12/19 04:40:36;;;;;;;47.67;25.95;;;2.50;99.90;;;;;;5014824;28;20469;-53
2022/12/19 04:43:02;;;;;;;47.40;27.15;;;2.50;99.90;;;;;;5014702;28;20029;-54
2022/12/19 04:45:28;;;;;;;48.70;27.25;;;2.50;99.90;;;;;;5016791;28;20069;-50
2022/12/19 04:47:54;;;;;;;47.28;26.58;;;2.60;99.90;;;;;;5017247;28;20052;-52
2022/12/19 04:50:19;;;;;;;54.95;28.35;;;2.60;99.90;;;;;;5019749;28;20026;-51
2022/12/19 04:52:45;;;;;;;51.33;27.45;;;2.30;99.90;;;;;;5019386;28;20104;-51
2022/12/19 04:55:11;;;;;;;50.65;27.52;;;2.40;99.90;;;;;;5017204;28;20022;-54
2022/12/19 04:57:37;;;;;;;49.83;27.00;;;2.40;99.90;;;;;;5015345;28;20053;-50
2022/12/19 05:00:05;;;;;;;52.13;27.65;;;2.30;99.90;;;;;;5015222;28;20873;-50
2022/12/19 05:02:31;;;;;;;47.70;25.95;;;2.30;99.90;;;;;;5016420;28;20523;-53
2022/12/19 05:04:57;;;;;;;40.45;24.00;;;2.40;99.90;;;;;;5013494;28;20145;-50
2022/12/19 05:07:23;;;;;;;43.17;24.33;;;2.30;99.90;;;;;;5014367;28;20563;-52
2022/12/19 05:09:48;;;;;;;39.47;22.90;;;2.20;99.90;;;;;;5014462;28;20393;-50
2022/12/19 05:12:14;;;;;;;41.20;24.80;;;2.20;99.90;;;;;;5011672;28;20030;-52
2022/12/19 05:14:40;;;;;;;48.35;26.17;;;2.10;99.90;;;;;;5013874;28;20123;-53
2022/12/19 05:17:06;;;;;;;49.42;26.25;;;2.30;99.90;;;;;;5011649;28;20038;-51
2022/12/19 05:19:32;;;;;;;56.80;33.78;;;2.50;99.90;;;;;;5011974;28;20042;-52
2022/12/19 05:21:58;;;;;;;41.17;26.55;;;2.70;99.90;;;;;;5011674;28;20521;-50
2022/12/19 05:24:23;;;;;;;41.58;24.30;;;2.70;99.90;;;;;;5011589;28;20034;-51
2022/12/19 05:26:49;;;;;;;39.65;24.77;;;2.70;99.90;;;;;;5011584;28;20486;-51
2022/12/19 05:29:16;;;;;;;40.92;23.75;;;2.80;99.90;;;;;;4979149;28;20034;-51
2022/12/19 05:31:42;;;;;;;42.15;23.58;;;2.90;99.90;;;;;;5009450;28;20050;-51
2022/12/19 05:34:08;;;;;;;42.35;22.70;;;3.00;99.90;;;;;;5011609;28;20236;-54
2022/12/19 05:36:33;;;;;;;41.88;24.13;;;3.10;99.90;;;;;;4993968;28;20507;-51
2022/12/19 05:38:59;;;;;;;41.15;23.38;;;3.20;99.90;;;;;;5011584;28;20026;-53
2022/12/19 05:41:25;;;;;;;36.53;22.40;;;3.20;99.90;;;;;;5007653;28;20040;-53
2022/12/19 05:43:53;;;;;;;39.80;22.73;;;3.20;99.90;;;;;;4977595;28;20052;-54
2022/12/19 05:46:19;;;;;;;37.97;22.30;;;3.20;99.90;;;;;;5011149;28;20453;-50
2022/12/19 05:48:46;;;;;;;44.95;25.75;;;3.00;99.90;;;;;;5011759;28;20433;-52
2022/12/19 05:51:12;;;;;;;49.42;29.15;;;3.10;99.90;;;;;;5010013;28;20030;-52
2022/12/19 05:53:38;;;;;;;49.67;28.73;;;3.10;99.90;;;;;;5012352;28;20026;-53
2022/12/19 05:56:06;;;;;;;48.03;26.95;;;3.10;99.90;;;;;;5008318;28;20026;-51
2022/12/19 05:58:32;;;;;;;44.50;27.02;;;3.00;99.90;;;;;;4991564;28;20132;-52
2022/12/19 06:01:26;;;;;;;48.85;26.13;;;2.70;99.90;;;;;;4990824;28;20025;-54
2022/12/19 06:03:53;;;;;;;40.35;22.65;;;2.90;99.90;;;;;;5028963;28;20088;-53
2022/12/19 06:06:23;;;;;;;42.80;23.63;;;2.60;99.90;;;;;;5026816;28;20041;-52
2022/12/19 06:08:56;;;;;;;43.53;23.98;;;2.50;99.90;;;;;;5029528;28;20068;-52
2022/12/19 06:11:23;;;;;;;46.47;24.50;;;2.40;99.90;;;;;;5023943;28;20120;-54
2022/12/19 06:13:49;;;;;;;42.38;23.05;;;2.30;99.90;;;;;;4994959;28;20040;-55
2022/12/19 06:16:17;;;;;;;46.88;27.60;;;2.30;99.90;;;;;;5030305;28;20029;-55
2022/12/19 06:18:44;;;;;;;51.17;29.30;;;2.30;99.90;;;;;;5028941;28;20084;-54
2022/12/19 06:21:13;;;;;;;53.47;30.05;;;2.10;99.90;;;;;;5030271;28;20037;-52
2022/12/19 06:23:39;;;;;;;57.72;31.50;;;2.10;99.90;;;;;;5030133;28;20033;-53
2022/12/19 06:26:07;;;;;;;52.22;28.00;;;2.30;99.90;;;;;;5030211;28;20030;-53
2022/12/19 06:28:33;;;;;;;48.72;29.30;;;2.50;99.90;;;;;;5027170;28;20073;-53
2022/12/19 06:31:01;;;;;;;50.30;28.23;;;2.50;99.90;;;;;;5022777;28;20030;-53
2022/12/19 06:33:28;;;;;;;50.08;30.25;;;2.60;99.90;;;;;;5019997;28;20037;-52
2022/12/19 06:36:21;;;;;;;66.95;37.05;;;2.70;99.90;;;;;;5029341;28;20310;-54
2022/12/19 06:38:47;;;;;;;67.60;38.20;;;2.70;99.90;;;;;;4991006;28;20073;-54
2022/12/19 06:44:00;;;;;;;116.18;56.15;;;2.90;99.90;;;;;;4969832;28;20130;-54
2022/12/19 06:46:25;;;;;;;79.88;47.78;;;3.10;99.90;;;;;;4971638;28;20069;-55
2022/12/19 06:48:51;;;;;;;74.25;44.30;;;3.20;99.90;;;;;;4971608;28;20074;-55
2022/12/19 06:51:17;;;;;;;77.97;42.47;;;3.50;99.90;;;;;;4972010;28;20035;-56
2022/12/19 06:53:43;;;;;;;69.70;40.30;;;;;;;;;;4971738;28;20073;-54
2022/12/19 06:56:12;;;;;;;61.47;39.92;;;5.90;99.90;;;;;;4971781;28;20071;-55
2022/12/19 06:58:38;;;;;;;70.70;39.13;;;7.10;99.90;;;;;;4971692;28;20035;-54
2022/12/19 07:01:04;;;;;;;64.30;37.72;;;8.40;99.90;;;;;;4971632;28;20514;-55
2022/12/19 07:03:35;;;;;;;74.53;42.05;;;9.40;99.90;;;;;;4972035;28;20039;-55
2022/12/19 07:06:02;;;;;;;55.30;33.40;;;10.20;99.90;;;;;;4972858;28;20483;-55
2022/12/19 07:08:28;;;;;;;42.25;26.42;;;11.10;99.90;;;;;;4975071;28;20042;-54
2022/12/19 07:10:54;;;;;;;39.20;25.33;;;11.80;99.90;;;;;;4975051;28;20039;-55
2022/12/19 07:13:20;;;;;;;36.13;24.20;;;11.70;99.90;;;;;;4974933;28;20037;-56
2022/12/19 07:15:47;;;;;;;38.10;24.00;;;;;;;;;;4986495;28;20062;-55
2022/12/19 07:18:13;;;;;;;34.80;23.50;;;;;;;;;;5015364;28;20064;-55
2022/12/19 07:20:41;;;;;;;36.85;24.80;;;13.80;97.50;;;;;;5015516;28;20056;-55
2022/12/19 07:23:09;;;;;;;37.10;24.50;;;;;;;;;;5019048;28;20058;-55
2022/12/19 07:25:36;;;;;;;44.63;29.60;;;;;;;;;;5006011;28;20026;-56
2022/12/19 07:28:02;;;;;;;43.63;27.52;;;14.00;94.80;;;;;;5013988;28;20041;-57
2022/12/19 07:30:28;;;;;;;38.90;27.58;;;14.20;94.30;;;;;;5015443;28;20389;-57
2022/12/19 07:32:54;;;;;;;37.47;26.90;;;14.70;93.10;;;;;;5016028;28;20041;-56
2022/12/19 07:35:21;;;;;;;36.10;24.65;;;16.40;93.20;;;;;;5016161;28;20428;-56
2022/12/19 07:37:46;;;;;;;38.15;25.52;;;16.20;92.80;;;;;;5015459;28;20112;-57
2022/12/19 07:40:12;;;;;;;38.50;26.05;;;16.70;93.00;;;;;;5030450;28;20126;-54
2022/12/19 07:42:38;;;;;;;37.92;25.13;;;14.20;96.90;;;;;;5015663;28;20061;-53
2022/12/19 07:45:04;;;;;;;39.40;27.50;;;13.90;91.70;;;;;;5015801;28;20140;-54
2022/12/19 07:47:30;;;;;;;40.78;29.67;;;14.80;93.10;;;;;;5015841;28;20496;-53
2022/12/19 07:49:56;;;;;;;38.90;28.02;;;15.80;92.20;;;;;;5015941;28;20049;-53
2022/12/19 07:52:22;;;;;;;37.35;25.25;;;;;;;;;;5015218;28;20112;-53
2022/12/19 07:54:48;;;;;;;37.08;27.55;;;;;;;;;;5015421;28;20033;-53
2022/12/19 07:57:13;;;;;;;38.72;27.58;;;17.60;96.30;;;;;;5015292;28;20029;-55
2022/12/19 07:59:40;;;;;;;39.65;26.83;;;;;;;;;;5015667;28;20030;-53
2022/12/19 08:02:06;;;;;;;36.70;26.05;;;;;;;;;;5015309;28;20030;-54
2022/12/19 08:04:31;;;;;;;37.53;27.23;;;14.80;91.80;;;;;;5015397;28;20113;-53
2022/12/19 08:06:57;;;;;;;43.35;31.15;;;14.90;90.20;;;;;;5015551;28;20501;-53
2022/12/19 08:09:26;;;;;;;50.08;33.70;;;15.50;90.70;;;;;;5015618;28;20077;-55
2022/12/19 08:11:53;;;;;;;37.03;25.58;;;16.30;89.90;;;;;;5015051;28;20041;-56
2022/12/19 08:14:18;;;;;;;40.20;28.45;;;15.90;87.80;;;;;;5013640;28;20375;-53
2022/12/19 08:16:44;;;;;;;38.45;27.88;;;14.50;90.40;;;;;;5029350;28;20030;-54
2022/12/19 08:19:10;;;;;;;39.40;28.35;;;14.20;90.30;;;;;;5011898;28;20029;-52
2022/12/19 08:21:36;;;;;;;37.05;25.85;;;14.70;90.10;;;;;;5012533;28;20486;-54
2022/12/19 08:24:02;;;;;;;33.35;23.67;;;;;;;;;;5013945;28;20034;-53
2022/12/19 08:26:28;;;;;;;34.08;23.63;;;13.80;97.90;;;;;;5013672;28;20045;-53
2022/12/19 08:28:55;;;;;;;32.00;22.42;;;;;;;;;;5014640;28;20017;-55
2022/12/19 08:31:23;;;;;;;33.60;22.83;;;11.70;99.30;;;;;;5014946;28;20112;-54
2022/12/19 08:33:50;;;;;;;30.77;22.42;;;11.00;91.90;;;;;;5014729;28;20038;-52
2022/12/19 08:36:20;;;;;;;34.03;23.70;;;10.40;92.70;;;;;;5015139;28;20145;-52
2022/12/19 08:38:47;;;;;;;34.30;23.15;;;11.50;94.70;;;;;;5028257;28;20473;-55
2022/12/19 08:41:14;;;;;;;29.75;20.55;;;10.40;98.80;;;;;;5009039;28;20030;-56
2022/12/19 08:43:40;;;;;;;38.92;27.15;;;11.10;93.20;;;;;;5013760;28;20485;-52
2022/12/19 08:46:08;;;;;;;33.20;23.85;;;11.50;93.30;;;;;;5013910;28;20049;-52
2022/12/19 08:48:34;;;;;;;25.40;18.10;;;11.20;93.10;;;;;;5013118;28;20107;-52
2022/12/19 08:51:11;;;;;;;29.80;20.65;;;10.30;93.30;;;;;;5013277;28;20025;-52
2022/12/19 08:53:38;;;;;;;34.80;23.40;;;;;;;;;;5009557;28;20025;-53
2022/12/19 08:56:13;;;;;;;36.55;24.58;;;10.40;99.90;;;;;;5013831;28;20017;-52
2022/12/19 08:58:39;;;;;;;34.17;21.80;;;;;;;;;;5012245;28;20121;-52
2022/12/19 09:01:09;;;;;;;36.92;25.00;;;;;;;;;;5028135;28;20038;-52
2022/12/19 09:03:35;;;;;;;38.50;25.13;;;10.30;99.90;;;;;;5013613;28;20018;-53
2022/12/19 09:06:04;;;;;;;37.22;24.10;;;10.40;94.00;;;;;;5013586;28;20487;-53
2022/12/19 09:08:30;;;;;;;33.22;20.48;;;9.80;94.10;;;;;;5013431;28;20061;-53
2022/12/19 09:11:01;;;;;;;37.28;25.15;;;7.80;96.00;;;;;;5027963;28;20038;-53
2022/12/19 09:13:28;;;;;;;39.22;26.10;;;8.00;96.30;;;;;;5011752;28;20025;-52
2022/12/19 09:16:21;;;;;;;30.23;18.48;;;8.00;96.50;;;;;;5013483;28;20028;-51
2022/12/19 09:18:49;;;;;;;35.63;21.15;;;6.50;97.40;;;;;;5009415;28;20113;-52
2022/12/19 09:21:16;;;;;;;47.53;29.10;;;6.00;98.70;;;;;;5013006;28;20030;-52
2022/12/19 09:23:42;;;;;;;34.85;22.00;;;5.80;99.50;;;;;;5012957;28;20034;-51
2022/12/19 09:26:12;;;;;;;31.38;18.25;;;5.60;99.90;;;;;;5010320;28;20088;-52
2022/12/19 09:28:39;;;;;;;32.63;19.05;;;;;;;;;;4994326;28;20062;-52
2022/12/19 09:31:09;;;;;;;21.60;13.40;;;5.40;99.90;;;;;;5013463;28;20420;-52
2022/12/19 09:33:35;;;;;;;37.40;23.75;;;4.60;99.90;;;;;;5012239;28;20026;-48
2022/12/19 09:36:02;;;;;;;45.65;25.20;;;5.00;99.90;;;;;;5011009;28;20022;-56
2022/12/19 09:38:30;;;;;;;37.72;23.23;;;5.20;99.90;;;;;;5013022;28;20029;-50
2022/12/19 09:40:55;;;;;;;35.83;22.20;;;5.80;99.90;;;;;;5012717;28;20448;-50
2022/12/19 09:43:31;;;;;;;35.53;23.42;;;6.60;99.90;;;;;;5012405;28;20114;-57
2022/12/19 09:46:25;;;;;;;35.67;22.58;;;6.80;99.90;;;;;;5011009;28;20052;-56
2022/12/19 09:48:55;;;;;;;34.40;20.65;;;6.50;99.90;;;;;;5010194;28;20036;-54
2022/12/19 09:51:39;;;;;;;32.75;17.70;;;6.50;99.90;;;;;;5010965;28;20045;-53
2022/12/19 09:54:15;;;;;;;29.15;17.73;;;6.00;99.90;;;;;;5011412;28;20021;-53
2022/12/19 09:56:43;;;;;;;32.10;18.05;;;5.30;99.90;;;;;;5012880;28;20024;-49
2022/12/19 09:59:13;;;;;;;34.15;17.85;;;;;;;;;;5012656;28;20476;-51
2022/12/19 10:01:55;;;;;;;41.42;26.58;;;4.80;99.90;;;;;;5013272;28;20030;-50
2022/12/19 10:04:25;;;;;;;37.60;22.83;;;4.90;99.90;;;;;;5012723;28;20093;-54
2022/12/19 10:06:51;;;;;;;35.17;22.92;;;5.20;99.90;;;;;;5010858;28;20038;-52
2022/12/19 10:09:20;;;;;;;38.38;23.92;;;5.40;99.90;;;;;;5012550;28;20092;-49
2022/12/19 10:11:55;;;;;;;39.42;23.35;;;5.50;99.90;;;;;;5012218;28;20030;-52
2022/12/19 10:14:46;;;;;;;32.75;20.27;;;5.50;99.90;;;;;;5012159;28;20080;-58
2022/12/19 10:17:22;;;;;;;35.93;23.07;;;5.70;99.90;;;;;;5012231;28;20561;-54
2022/12/19 10:20:20;;;;;;;35.08;22.23;;;5.80;99.90;;;;;;5011975;28;20025;-50
2022/12/19 10:23:03;;;;;;;36.13;21.85;;;6.10;99.90;;;;;;5020952;28;20041;-49
2022/12/19 10:26:00;;;;;;;39.10;23.10;;;5.90;99.90;;;;;;5010214;28;20045;-56
2022/12/19 10:29:05;;;;;;;24.20;16.25;;;6.20;99.90;;;;;;5008029;28;20029;-48
2022/12/19 10:32:06;;;;;;;35.50;22.52;;;5.60;99.90;;;;;;5007166;28;20038;-45
2022/12/19 10:34:44;;;;;;;33.05;19.40;;;6.00;99.90;;;;;;4989833;28;20038;-48
2022/12/19 10:37:22;;;;;;;32.30;18.73;;;5.70;99.90;;;;;;4989615;28;20093;-45
2022/12/19 10:40:10;;;;;;;34.72;20.05;;;5.40;99.90;;;;;;4990613;28;20041;-46
2022/12/19 10:42:57;;;;;;;34.40;20.25;;;5.40;99.90;;;;;;4959163;28;20105;-48
2022/12/19 10:45:25;;;;;;;37.75;22.15;;;5.50;99.90;;;;;;4992832;28;20459;-47
2022/12/19 10:47:55;;;;;;;34.78;22.17;;;5.70;99.90;;;;;;4992278;28;20099;-48
2022/12/19 10:50:24;;;;;;;35.38;20.67;;;5.90;99.90;;;;;;4993409;28;20381;-51
2022/12/19 10:52:51;;;;;;;30.67;17.80;;;5.40;99.90;;;;;;4992643;28;20132;-49
2022/12/19 10:55:33;;;;;;;33.95;19.85;;;5.40;99.90;;;;;;4992680;28;20245;-47
2022/12/19 10:58:10;;;;;;;31.52;20.90;;;5.50;99.90;;;;;;4984296;28;20129;-47
2022/12/19 11:00:35;;;;;;;33.35;20.35;;;5.20;99.90;;;;;;4990575;28;20061;-47
2022/12/19 11:03:14;;;;;;;35.08;21.90;;;5.30;99.90;;;;;;4991262;28;20581;-50
2022/12/19 11:05:48;;;;;;;35.53;21.85;;;5.40;99.90;;;;;;4991744;28;21307;-50
2022/12/19 11:08:24;;;;;;;36.63;23.38;;;5.70;99.90;;;;;;4991334;28;20042;-50
2022/12/19 11:10:55;;;;;;;37.65;23.70;;;6.00;99.90;;;;;;4997778;28;20095;-51
2022/12/19 11:13:45;;;;;;;55.58;31.73;;;6.50;99.90;;;;;;5015378;28;20052;-51
2022/12/19 11:16:14;;;;;;;32.65;19.00;;;6.30;99.90;;;;;;5015171;28;20026;-49
2022/12/19 11:18:44;;;;;;;34.53;21.38;;;6.20;99.90;;;;;;5014878;28;20026;-50
2022/12/19 11:21:12;;;;;;;34.13;21.17;;;6.30;99.90;;;;;;5015112;28;20034;-51
2022/12/19 11:23:48;;;;;;;31.60;20.33;;;6.10;99.90;;;;;;5012321;28;20061;-55
2022/12/19 11:26:32;;;;;;;23.77;14.00;;;6.30;99.90;;;;;;5012443;28;20029;-51
2022/12/19 11:29:24;;;;;;;31.38;18.70;;;6.10;99.90;;;;;;5014671;28;20445;-53
2022/12/19 11:31:59;;;;;;;19.02;11.77;;;6.20;99.90;;;;;;5014399;28;20034;-49
2022/12/19 11:34:27;;;;;;;21.45;12.60;;;6.20;99.90;;;;;;5014664;28;20034;-56
2022/12/19 11:37:00;;;;;;;22.38;13.75;;;6.00;99.90;;;;;;5014592;28;20026;-56
2022/12/19 11:39:58;;;;;;;25.85;16.05;;;5.80;99.90;;;;;;5010595;28;20068;-49
2022/12/19 11:42:52;;;;;;;21.38;13.57;;;5.50;99.90;;;;;;5011876;28;20409;-50
2022/12/19 11:45:36;;;;;;;25.80;16.55;;;5.40;99.90;;;;;;4973193;28;20038;-56
2022/12/19 11:48:33;;;;;;;27.10;18.48;;;5.90;99.90;;;;;;5010803;28;20053;-49
2022/12/19 11:51:00;;;;;;;25.17;16.23;;;6.10;99.90;;;;;;5011914;28;20128;-57
2022/12/19 11:53:34;;;;;;;23.60;13.32;;;6.20;99.90;;;;;;5011636;28;20037;-53
2022/12/19 11:56:08;;;;;;;27.58;16.13;;;6.00;99.90;;;;;;5012146;28;20544;-54
2022/12/19 11:58:33;;;;;;;22.58;14.15;;;5.90;99.90;;;;;;5011831;28;20072;-54
2022/12/19 12:01:28;;;;;;;24.85;13.88;;;6.00;99.90;;;;;;5012015;28;20029;-54
2022/12/19 12:04:05;;;;;;;22.85;14.48;;;5.80;99.90;;;;;;5011678;28;20148;-52
2022/12/19 12:06:39;;;;;;;22.33;13.27;;;6.00;99.90;;;;;;5012012;28;20489;-54
2022/12/19 12:09:25;;;;;;;20.30;11.15;;;5.90;99.90;;;;;;5011960;28;20048;-55
2022/12/19 12:12:11;;;;;;;20.80;12.27;;;5.50;99.90;;;;;;5011467;28;20131;-53
2022/12/19 12:15:15;;;;;;;16.33;9.02;;;5.50;99.90;;;;;;5011543;28;20052;-55
2022/12/19 12:17:56;;;;;;;23.50;15.13;;;5.50;99.90;;;;;;4953356;29;20141;-54
2022/12/19 12:20:49;;;;;;;22.38;13.18;;;5.60;99.90;;;;;;4935733;29;20533;-51
2022/12/19 12:23:24;;;;;;;27.05;16.08;;;5.70;99.90;;;;;;4935534;29;20118;-52
2022/12/19 12:26:21;;;;;;;27.52;15.70;;;6.00;99.90;;;;;;4945535;28;20065;-49
2022/12/19 12:29:13;;;;;;;22.30;12.32;;;5.90;99.90;;;;;;4950742;28;20537;-51
2022/12/19 12:32:02;;;;;;;22.52;14.02;;;5.70;99.90;;;;;;4943824;28;20404;-60
2022/12/19 12:34:42;;;;;;;21.48;12.88;;;5.80;99.90;;;;;;4944836;28;20099;-49
2022/12/19 12:37:26;;;;;;;19.90;12.77;;;5.60;99.90;;;;;;4917008;29;20067;-55
2022/12/19 12:40:33;;;;;;;19.23;10.45;;;5.50;99.90;;;;;;4932870;29;20620;-52
2022/12/19 12:43:17;;;;;;;26.30;15.88;;;5.70;99.90;;;;;;4901003;29;20068;-54
2022/12/19 12:45:44;;;;;;;21.77;13.27;;;5.50;99.90;;;;;;4902198;29;20159;-56
2022/12/19 12:48:24;;;;;;;22.55;14.02;;;5.50;99.90;;;;;;4905454;29;20050;-50
2022/12/19 12:50:52;;;;;;;20.83;11.88;;;5.60;99.90;;;;;;4899075;29;20075;-55
2022/12/19 12:53:21;;;;;;;18.45;11.30;;;5.60;99.90;;;;;;4907080;29;20540;-57
2022/12/19 12:55:48;;;;;;;25.70;12.93;;;5.60;99.90;;;;;;4948320;29;20507;-51
2022/12/19 12:58:53;;;;;;;17.92;10.38;;;5.50;99.90;;;;;;4946173;29;20030;-48
2022/12/19 13:01:34;;;;;;;26.98;17.33;;;5.40;99.90;;;;;;4933474;29;20058;-50
2022/12/19 13:04:11;;;;;;;24.48;15.73;;;5.50;99.90;;;;;;4932197;29;20082;-49
2022/12/19 13:06:39;;;;;;;24.88;15.52;;;5.50;99.90;;;;;;4934456;29;20086;-49
2022/12/19 13:09:07;;;;;;;24.35;15.25;;;5.60;99.90;;;;;;4934471;29;20047;-51